sensor_id;sensor_type;location;lat;lon;timestamp;temperature;humidity
37158;DHT22;23050;51.776;22.638;2023-03-14T00:03:34;7.90;77.50
37158;DHT22;23050;51.776;22.638;2023-03-14T00:06:04;7.80;80.30
37158;DHT22;23050;51.776;22.638;2023-03-14T00:08:30;7.80;79.60
37158;DHT22;23050;51.776;22.638;2023-03-14T00:10:55;7.70;80.50
37158;DHT22;23050;51.776;22.638;2023-03-14T00:13:23;7.80;80.50
37158;DHT22;23050;51.776;22.638;2023-03-14T00:15:49;7.70;80.50
37158;DHT22;23050;51.776;22.638;2023-03-14T00:18:14;7.60;81.70
37158;DHT22;23050;51.776;22.638;2023-03-14T00:20:40;7.60;83.20
37158;DHT22;23050;51.776;22.638;2023-03-14T00:23:06;7.50;84.40
37158;DHT22;23050;51.776;22.638;2023-03-14T00:25:32;7.50;84.00
37158;DHT22;23050;51.776;22.638;2023-03-14T00:27:57;7.50;84.50
37158;DHT22;23050;51.776;22.638;2023-03-14T00:30:23;7.50;85.40
37158;DHT22;23050;51.776;22.638;2023-03-14T00:32:48;7.50;86.70
37158;DHT22;23050;51.776;22.638;2023-03-14T00:35:15;7.50;88.80
37158;DHT22;23050;51.776;22.638;2023-03-14T00:37:40;7.40;89.20
37158;DHT22;23050;51.776;22.638;2023-03-14T00:40:07;7.40;90.00
37158;DHT22;23050;51.776;22.638;2023-03-14T00:42:33;7.40;89.40
37158;DHT22;23050;51.776;22.638;2023-03-14T00:44:58;7.30;90.20
37158;DHT22;23050;51.776;22.638;2023-03-14T00:47:24;7.30;90.60
37158;DHT22;23050;51.776;22.638;2023-03-14T00:49:49;7.30;90.40
37158;DHT22;23050;51.776;22.638;2023-03-14T00:52:15;7.30;90.40
37158;DHT22;23050;51.776;22.638;2023-03-14T00:54:40;7.30;90.10
37158;DHT22;23050;51.776;22.638;2023-03-14T00:57:06;7.30;90.20
37158;DHT22;23050;51.776;22.638;2023-03-14T00:59:32;7.30;90.80
37158;DHT22;23050;51.776;22.638;2023-03-14T01:01:57;7.30;90.50
37158;DHT22;23050;51.776;22.638;2023-03-14T01:04:23;7.30;90.20
37158;DHT22;23050;51.776;22.638;2023-03-14T01:06:48;7.30;89.60
37158;DHT22;23050;51.776;22.638;2023-03-14T01:09:14;7.30;90.10
37158;DHT22;23050;51.776;22.638;2023-03-14T01:11:39;7.20;90.50
37158;DHT22;23050;51.776;22.638;2023-03-14T01:14:05;7.30;90.00
37158;DHT22;23050;51.776;22.638;2023-03-14T01:16:33;7.30;89.20
37158;DHT22;23050;51.776;22.638;2023-03-14T01:18:59;7.30;89.00
37158;DHT22;23050;51.776;22.638;2023-03-14T01:21:33;7.30;89.60
37158;DHT22;23050;51.776;22.638;2023-03-14T01:24:00;7.30;88.60
37158;DHT22;23050;51.776;22.638;2023-03-14T01:26:29;7.30;89.40
37158;DHT22;23050;51.776;22.638;2023-03-14T01:28:56;7.20;88.40
37158;DHT22;23050;51.776;22.638;2023-03-14T01:31:23;7.20;89.20
37158;DHT22;23050;51.776;22.638;2023-03-14T01:33:48;7.20;89.00
37158;DHT22;23050;51.776;22.638;2023-03-14T01:36:14;7.20;88.60
37158;DHT22;23050;51.776;22.638;2023-03-14T01:38:40;7.20;86.40
37158;DHT22;23050;51.776;22.638;2023-03-14T01:41:07;7.30;83.70
37158;DHT22;23050;51.776;22.638;2023-03-14T01:43:33;7.40;82.40
37158;DHT22;23050;51.776;22.638;2023-03-14T01:54:02;7.20;83.10
37158;DHT22;23050;51.776;22.638;2023-03-14T01:56:30;7.20;83.40
37158;DHT22;23050;51.776;22.638;2023-03-14T01:58:56;7.20;84.50
37158;DHT22;23050;51.776;22.638;2023-03-14T02:01:24;7.20;83.10
37158;DHT22;23050;51.776;22.638;2023-03-14T02:03:55;7.20;80.80
37158;DHT22;23050;51.776;22.638;2023-03-14T02:06:26;7.20;79.00
37158;DHT22;23050;51.776;22.638;2023-03-14T02:08:54;7.20;79.60
37158;DHT22;23050;51.776;22.638;2023-03-14T02:11:20;7.20;78.60
37158;DHT22;23050;51.776;22.638;2023-03-14T02:13:46;7.30;77.40
37158;DHT22;23050;51.776;22.638;2023-03-14T02:16:12;7.20;76.20
37158;DHT22;23050;51.776;22.638;2023-03-14T02:18:38;7.30;74.90
37158;DHT22;23050;51.776;22.638;2023-03-14T02:21:09;7.30;72.40
37158;DHT22;23050;51.776;22.638;2023-03-14T02:26:27;7.20;72.20
37158;DHT22;23050;51.776;22.638;2023-03-14T02:28:53;7.20;72.70
37158;DHT22;23050;51.776;22.638;2023-03-14T02:31:20;7.20;73.60
37158;DHT22;23050;51.776;22.638;2023-03-14T02:33:47;7.10;74.90
37158;DHT22;23050;51.776;22.638;2023-03-14T02:36:14;7.10;74.70
37158;DHT22;23050;51.776;22.638;2023-03-14T02:39:00;7.10;75.40
37158;DHT22;23050;51.776;22.638;2023-03-14T02:41:26;7.10;75.90
37158;DHT22;23050;51.776;22.638;2023-03-14T02:43:52;7.10;75.10
37158;DHT22;23050;51.776;22.638;2023-03-14T02:46:19;7.20;72.10
37158;DHT22;23050;51.776;22.638;2023-03-14T02:49:01;7.20;70.50
37158;DHT22;23050;51.776;22.638;2023-03-14T02:51:28;7.30;68.10
37158;DHT22;23050;51.776;22.638;2023-03-14T02:53:54;7.30;67.00
37158;DHT22;23050;51.776;22.638;2023-03-14T02:56:20;7.30;64.50
37158;DHT22;23050;51.776;22.638;2023-03-14T02:58:45;7.30;63.80
37158;DHT22;23050;51.776;22.638;2023-03-14T03:01:11;7.30;65.70
37158;DHT22;23050;51.776;22.638;2023-03-14T03:03:37;7.30;65.70
37158;DHT22;23050;51.776;22.638;2023-03-14T03:06:02;7.20;65.50
37158;DHT22;23050;51.776;22.638;2023-03-14T03:08:29;7.20;66.20
37158;DHT22;23050;51.776;22.638;2023-03-14T03:10:56;7.30;64.00
37158;DHT22;23050;51.776;22.638;2023-03-14T03:13:22;7.40;62.70
37158;DHT22;23050;51.776;22.638;2023-03-14T03:15:47;7.40;61.70
37158;DHT22;23050;51.776;22.638;2023-03-14T03:18:13;7.40;60.20
37158;DHT22;23050;51.776;22.638;2023-03-14T03:20:38;7.40;59.30
37158;DHT22;23050;51.776;22.638;2023-03-14T03:23:04;7.40;57.50
37158;DHT22;23050;51.776;22.638;2023-03-14T03:25:30;7.50;54.00
37158;DHT22;23050;51.776;22.638;2023-03-14T03:27:56;7.50;52.10
37158;DHT22;23050;51.776;22.638;2023-03-14T03:30:21;7.60;51.40
37158;DHT22;23050;51.776;22.638;2023-03-14T03:32:47;7.60;48.60
37158;DHT22;23050;51.776;22.638;2023-03-14T03:35:13;7.60;48.40
37158;DHT22;23050;51.776;22.638;2023-03-14T03:37:39;7.60;49.50
37158;DHT22;23050;51.776;22.638;2023-03-14T03:40:05;7.60;48.90
37158;DHT22;23050;51.776;22.638;2023-03-14T03:42:32;7.60;50.10
37158;DHT22;23050;51.776;22.638;2023-03-14T03:44:58;7.70;47.90
37158;DHT22;23050;51.776;22.638;2023-03-14T03:47:24;7.70;47.60
37158;DHT22;23050;51.776;22.638;2023-03-14T03:49:49;7.70;48.40
37158;DHT22;23050;51.776;22.638;2023-03-14T03:52:15;7.60;49.60
37158;DHT22;23050;51.776;22.638;2023-03-14T03:54:40;7.60;49.30
37158;DHT22;23050;51.776;22.638;2023-03-14T03:57:06;7.70;49.50
37158;DHT22;23050;51.776;22.638;2023-03-14T03:59:31;7.70;49.20
37158;DHT22;23050;51.776;22.638;2023-03-14T04:01:57;7.70;46.10
37158;DHT22;23050;51.776;22.638;2023-03-14T04:04:23;7.80;45.60
37158;DHT22;23050;51.776;22.638;2023-03-14T04:06:48;7.80;45.60
37158;DHT22;23050;51.776;22.638;2023-03-14T04:09:14;7.80;45.00
37158;DHT22;23050;51.776;22.638;2023-03-14T04:11:39;7.90;42.80
37158;DHT22;23050;51.776;22.638;2023-03-14T04:14:06;7.90;42.10
37158;DHT22;23050;51.776;22.638;2023-03-14T04:16:32;8.00;39.50
37158;DHT22;23050;51.776;22.638;2023-03-14T04:18:58;8.00;36.00
37158;DHT22;23050;51.776;22.638;2023-03-14T04:21:23;8.10;31.20
37158;DHT22;23050;51.776;22.638;2023-03-14T04:23:49;8.20;30.10
37158;DHT22;23050;51.776;22.638;2023-03-14T04:26:15;8.20;30.00
37158;DHT22;23050;51.776;22.638;2023-03-14T04:28:41;8.30;27.00
37158;DHT22;23050;51.776;22.638;2023-03-14T04:31:11;8.30;27.00
37158;DHT22;23050;51.776;22.638;2023-03-14T04:33:37;8.30;24.20
37158;DHT22;23050;51.776;22.638;2023-03-14T04:36:04;8.40;21.50
37158;DHT22;23050;51.776;22.638;2023-03-14T04:38:30;8.40;23.70
37158;DHT22;23050;51.776;22.638;2023-03-14T04:40:56;8.40;20.00
37158;DHT22;23050;51.776;22.638;2023-03-14T04:43:22;8.40;17.20
37158;DHT22;23050;51.776;22.638;2023-03-14T04:45:47;8.40;16.60
37158;DHT22;23050;51.776;22.638;2023-03-14T04:48:13;8.40;18.40
37158;DHT22;23050;51.776;22.638;2023-03-14T04:50:39;8.40;17.10
37158;DHT22;23050;51.776;22.638;2023-03-14T04:53:05;8.30;19.10
37158;DHT22;23050;51.776;22.638;2023-03-14T04:55:32;8.20;23.10
37158;DHT22;23050;51.776;22.638;2023-03-14T04:57:58;8.10;25.00
37158;DHT22;23050;51.776;22.638;2023-03-14T05:00:24;8.10;23.40
37158;DHT22;23050;51.776;22.638;2023-03-14T05:02:50;8.20;24.10
37158;DHT22;23050;51.776;22.638;2023-03-14T05:05:15;8.20;21.10
37158;DHT22;23050;51.776;22.638;2023-03-14T05:07:41;8.30;16.50
37158;DHT22;23050;51.776;22.638;2023-03-14T05:10:07;8.40;13.30
37158;DHT22;23050;51.776;22.638;2023-03-14T05:12:32;8.40;8.40
37158;DHT22;23050;51.776;22.638;2023-03-14T05:14:58;8.50;2.30
37158;DHT22;23050;51.776;22.638;2023-03-14T05:17:24;8.40;2.80
37158;DHT22;23050;51.776;22.638;2023-03-14T05:19:49;8.40;5.70
37158;DHT22;23050;51.776;22.638;2023-03-14T05:22:15;8.30;7.00
37158;DHT22;23050;51.776;22.638;2023-03-14T05:24:40;8.30;3.10
37158;DHT22;23050;51.776;22.638;2023-03-14T05:27:06;8.20;5.90
37158;DHT22;23050;51.776;22.638;2023-03-14T05:29:31;8.30;4.40
37158;DHT22;23050;51.776;22.638;2023-03-14T05:31:57;8.30;4.90
37158;DHT22;23050;51.776;22.638;2023-03-14T05:34:23;8.20;6.60
37158;DHT22;23050;51.776;22.638;2023-03-14T05:36:48;8.20;7.70
37158;DHT22;23050;51.776;22.638;2023-03-14T05:39:14;8.20;9.40
37158;DHT22;23050;51.776;22.638;2023-03-14T05:41:39;8.10;7.50
37158;DHT22;23050;51.776;22.638;2023-03-14T05:44:05;8.20;2.60
37158;DHT22;23050;51.776;22.638;2023-03-14T05:46:31;8.30;1.70
37158;DHT22;23050;51.776;22.638;2023-03-14T05:48:57;8.30;1.00
37158;DHT22;23050;51.776;22.638;2023-03-14T05:51:23;8.30;1.00
37158;DHT22;23050;51.776;22.638;2023-03-14T05:53:49;8.40;1.00
37158;DHT22;23050;51.776;22.638;2023-03-14T05:56:14;8.60;1.00
37158;DHT22;23050;51.776;22.638;2023-03-14T05:59:06;9.00;1.00
37158;DHT22;23050;51.776;22.638;2023-03-14T06:01:37;9.40;1.00
37158;DHT22;23050;51.776;22.638;2023-03-14T06:04:03;9.70;1.00
37158;DHT22;23050;51.776;22.638;2023-03-14T06:06:28;10.00;1.00
37158;DHT22;23050;51.776;22.638;2023-03-14T06:08:54;10.40;1.00
37158;DHT22;23050;51.776;22.638;2023-03-14T06:11:19;10.60;1.00
37158;DHT22;23050;51.776;22.638;2023-03-14T06:13:45;11.00;1.00
37158;DHT22;23050;51.776;22.638;2023-03-14T06:16:11;11.10;1.00
37158;DHT22;23050;51.776;22.638;2023-03-14T06:18:37;11.40;1.00
37158;DHT22;23050;51.776;22.638;2023-03-14T06:21:02;11.60;1.00
37158;DHT22;23050;51.776;22.638;2023-03-14T06:23:28;12.20;1.00
37158;DHT22;23050;51.776;22.638;2023-03-14T06:25:55;12.70;1.00
37158;DHT22;23050;51.776;22.638;2023-03-14T06:28:21;13.10;1.00
37158;DHT22;23050;51.776;22.638;2023-03-14T06:30:46;13.50;1.00
37158;DHT22;23050;51.776;22.638;2023-03-14T06:33:12;13.80;1.00
37158;DHT22;23050;51.776;22.638;2023-03-14T06:35:43;14.10;1.00
37158;DHT22;23050;51.776;22.638;2023-03-14T06:38:09;14.20;1.00
37158;DHT22;23050;51.776;22.638;2023-03-14T06:40:34;14.30;1.00
37158;DHT22;23050;51.776;22.638;2023-03-14T06:43:00;14.60;1.00
37158;DHT22;23050;51.776;22.638;2023-03-14T06:45:25;14.70;1.00
37158;DHT22;23050;51.776;22.638;2023-03-14T06:47:51;14.70;1.00
37158;DHT22;23050;51.776;22.638;2023-03-14T06:50:16;14.70;1.00
37158;DHT22;23050;51.776;22.638;2023-03-14T06:52:42;14.70;1.00
37158;DHT22;23050;51.776;22.638;2023-03-14T06:55:13;14.50;1.00
37158;DHT22;23050;51.776;22.638;2023-03-14T06:57:39;14.70;1.00
37158;DHT22;23050;51.776;22.638;2023-03-14T07:00:05;14.90;1.00
37158;DHT22;23050;51.776;22.638;2023-03-14T07:02:33;14.80;1.00
37158;DHT22;23050;51.776;22.638;2023-03-14T07:04:58;14.70;1.00
37158;DHT22;23050;51.776;22.638;2023-03-14T07:07:26;14.40;1.00
37158;DHT22;23050;51.776;22.638;2023-03-14T07:09:52;14.80;1.00
37158;DHT22;23050;51.776;22.638;2023-03-14T07:12:17;14.90;1.00
37158;DHT22;23050;51.776;22.638;2023-03-14T07:14:43;14.80;1.00
37158;DHT22;23050;51.776;22.638;2023-03-14T07:17:08;14.60;1.00
37158;DHT22;23050;51.776;22.638;2023-03-14T07:19:34;14.50;1.00
37158;DHT22;23050;51.776;22.638;2023-03-14T07:22:00;14.40;1.00
37158;DHT22;23050;51.776;22.638;2023-03-14T07:24:26;14.50;1.00
37158;DHT22;23050;51.776;22.638;2023-03-14T07:26:52;14.80;1.00
37158;DHT22;23050;51.776;22.638;2023-03-14T07:29:17;15.20;1.00
37158;DHT22;23050;51.776;22.638;2023-03-14T07:31:43;15.00;1.00
37158;DHT22;23050;51.776;22.638;2023-03-14T07:34:09;14.90;1.00
37158;DHT22;23050;51.776;22.638;2023-03-14T07:36:34;15.30;1.00
37158;DHT22;23050;51.776;22.638;2023-03-14T07:39:00;15.90;1.00
37158;DHT22;23050;51.776;22.638;2023-03-14T07:41:26;16.50;1.00
37158;DHT22;23050;51.776;22.638;2023-03-14T07:43:51;16.70;1.00
37158;DHT22;23050;51.776;22.638;2023-03-14T07:46:17;16.50;1.00
37158;DHT22;23050;51.776;22.638;2023-03-14T07:48:42;16.00;1.00
37158;DHT22;23050;51.776;22.638;2023-03-14T07:51:08;15.80;1.00
37158;DHT22;23050;51.776;22.638;2023-03-14T07:53:34;16.00;1.00
37158;DHT22;23050;51.776;22.638;2023-03-14T07:55:59;16.30;1.00
37158;DHT22;23050;51.776;22.638;2023-03-14T07:58:25;16.50;1.00
37158;DHT22;23050;51.776;22.638;2023-03-14T08:00:51;16.30;1.00
37158;DHT22;23050;51.776;22.638;2023-03-14T08:03:17;16.20;1.00
37158;DHT22;23050;51.776;22.638;2023-03-14T08:05:43;16.30;1.00
37158;DHT22;23050;51.776;22.638;2023-03-14T08:08:09;16.50;1.00
37158;DHT22;23050;51.776;22.638;2023-03-14T08:10:35;16.60;1.00
37158;DHT22;23050;51.776;22.638;2023-03-14T08:13:01;15.90;1.00
37158;DHT22;23050;51.776;22.638;2023-03-14T08:15:28;15.80;1.00
37158;DHT22;23050;51.776;22.638;2023-03-14T08:17:55;15.60;1.00
37158;DHT22;23050;51.776;22.638;2023-03-14T08:20:22;16.10;1.00
37158;DHT22;23050;51.776;22.638;2023-03-14T08:22:48;16.20;1.00
37158;DHT22;23050;51.776;22.638;2023-03-14T08:25:14;16.50;1.00
37158;DHT22;23050;51.776;22.638;2023-03-14T08:27:40;16.90;1.00
37158;DHT22;23050;51.776;22.638;2023-03-14T08:30:09;17.00;1.00
37158;DHT22;23050;51.776;22.638;2023-03-14T08:32:36;17.00;1.00
37158;DHT22;23050;51.776;22.638;2023-03-14T08:35:02;16.90;1.00
37158;DHT22;23050;51.776;22.638;2023-03-14T08:37:28;17.10;1.00
37158;DHT22;23050;51.776;22.638;2023-03-14T08:39:54;17.00;1.00
37158;DHT22;23050;51.776;22.638;2023-03-14T08:42:19;17.00;1.00
37158;DHT22;23050;51.776;22.638;2023-03-14T08:44:45;17.30;1.00
37158;DHT22;23050;51.776;22.638;2023-03-14T08:47:11;17.40;1.00
37158;DHT22;23050;51.776;22.638;2023-03-14T08:49:36;17.80;1.00
37158;DHT22;23050;51.776;22.638;2023-03-14T08:52:03;17.70;1.00
37158;DHT22;23050;51.776;22.638;2023-03-14T08:54:30;17.30;1.00
37158;DHT22;23050;51.776;22.638;2023-03-14T08:56:56;17.40;1.00
37158;DHT22;23050;51.776;22.638;2023-03-14T08:59:22;17.40;1.00
37158;DHT22;23050;51.776;22.638;2023-03-14T09:01:48;17.30;1.00
37158;DHT22;23050;51.776;22.638;2023-03-14T09:04:13;17.20;1.00
37158;DHT22;23050;51.776;22.638;2023-03-14T09:06:39;17.10;1.00
37158;DHT22;23050;51.776;22.638;2023-03-14T09:09:05;17.20;1.00
37158;DHT22;23050;51.776;22.638;2023-03-14T09:11:31;17.10;1.00
37158;DHT22;23050;51.776;22.638;2023-03-14T09:13:56;17.10;1.00
37158;DHT22;23050;51.776;22.638;2023-03-14T09:16:22;16.90;1.00
37158;DHT22;23050;51.776;22.638;2023-03-14T09:18:48;17.00;1.00
37158;DHT22;23050;51.776;22.638;2023-03-14T09:21:13;17.30;1.00
37158;DHT22;23050;51.776;22.638;2023-03-14T09:23:39;17.30;1.00
37158;DHT22;23050;51.776;22.638;2023-03-14T09:26:05;17.30;1.00
37158;DHT22;23050;51.776;22.638;2023-03-14T09:28:31;17.30;1.00
37158;DHT22;23050;51.776;22.638;2023-03-14T09:30:57;17.30;1.00
37158;DHT22;23050;51.776;22.638;2023-03-14T09:33:23;17.40;1.00
37158;DHT22;23050;51.776;22.638;2023-03-14T09:35:49;17.60;1.00
37158;DHT22;23050;51.776;22.638;2023-03-14T09:38:15;17.90;1.00
37158;DHT22;23050;51.776;22.638;2023-03-14T09:40:42;18.00;1.00
37158;DHT22;23050;51.776;22.638;2023-03-14T09:43:14;18.10;1.00
37158;DHT22;23050;51.776;22.638;2023-03-14T09:45:41;18.10;1.00
37158;DHT22;23050;51.776;22.638;2023-03-14T09:48:15;18.20;1.00
37158;DHT22;23050;51.776;22.638;2023-03-14T09:50:49;17.70;1.00
37158;DHT22;23050;51.776;22.638;2023-03-14T09:53:39;17.50;1.00
37158;DHT22;23050;51.776;22.638;2023-03-14T09:56:21;17.80;1.00
37158;DHT22;23050;51.776;22.638;2023-03-14T09:58:51;18.00;1.00
37158;DHT22;23050;51.776;22.638;2023-03-14T10:01:22;18.10;1.00
37158;DHT22;23050;51.776;22.638;2023-03-14T10:03:53;18.10;1.00
37158;DHT22;23050;51.776;22.638;2023-03-14T10:06:25;17.80;1.00
37158;DHT22;23050;51.776;22.638;2023-03-14T10:08:51;18.10;1.00
37158;DHT22;23050;51.776;22.638;2023-03-14T10:11:19;18.10;1.00
37158;DHT22;23050;51.776;22.638;2023-03-14T10:14:05;18.20;1.00
37158;DHT22;23050;51.776;22.638;2023-03-14T10:16:34;18.40;1.00
37158;DHT22;23050;51.776;22.638;2023-03-14T10:19:03;18.10;1.00
37158;DHT22;23050;51.776;22.638;2023-03-14T10:21:30;18.30;1.00
37158;DHT22;23050;51.776;22.638;2023-03-14T10:24:19;18.20;1.00
37158;DHT22;23050;51.776;22.638;2023-03-14T10:26:54;18.20;1.00
37158;DHT22;23050;51.776;22.638;2023-03-14T10:29:21;18.60;1.00
37158;DHT22;23050;51.776;22.638;2023-03-14T10:32:04;18.20;1.00
37158;DHT22;23050;51.776;22.638;2023-03-14T10:34:35;17.90;1.00
37158;DHT22;23050;51.776;22.638;2023-03-14T10:37:24;17.80;1.00
37158;DHT22;23050;51.776;22.638;2023-03-14T10:39:53;17.20;1.00
37158;DHT22;23050;51.776;22.638;2023-03-14T10:42:28;16.40;1.00
37158;DHT22;23050;51.776;22.638;2023-03-14T10:44:57;15.90;1.00
37158;DHT22;23050;51.776;22.638;2023-03-14T10:47:25;15.90;1.00
37158;DHT22;23050;51.776;22.638;2023-03-14T10:49:51;16.30;1.00
37158;DHT22;23050;51.776;22.638;2023-03-14T10:52:25;16.80;1.00
37158;DHT22;23050;51.776;22.638;2023-03-14T10:54:58;17.00;1.00
37158;DHT22;23050;51.776;22.638;2023-03-14T10:57:25;16.90;1.00
37158;DHT22;23050;51.776;22.638;2023-03-14T10:59:52;16.70;1.00
37158;DHT22;23050;51.776;22.638;2023-03-14T11:07:45;16.70;1.00
37158;DHT22;23050;51.776;22.638;2023-03-14T11:21:05;17.40;1.00
37158;DHT22;23050;51.776;22.638;2023-03-14T11:31:47;18.00;1.00
37158;DHT22;23050;51.776;22.638;2023-03-14T11:36:48;17.90;1.00
37158;DHT22;23050;51.776;22.638;2023-03-14T11:39:18;17.60;1.00
37158;DHT22;23050;51.776;22.638;2023-03-14T11:41:50;17.40;1.00
37158;DHT22;23050;51.776;22.638;2023-03-14T11:44:24;17.70;1.00
37158;DHT22;23050;51.776;22.638;2023-03-14T11:46:59;17.90;1.00
37158;DHT22;23050;51.776;22.638;2023-03-14T11:49:38;17.60;1.00
37158;DHT22;23050;51.776;22.638;2023-03-14T11:52:28;17.40;1.00
37158;DHT22;23050;51.776;22.638;2023-03-14T11:57:30;17.50;1.00
37158;DHT22;23050;51.776;22.638;2023-03-14T12:00:20;17.90;1.00
37158;DHT22;23050;51.776;22.638;2023-03-14T12:02:58;18.00;1.00
37158;DHT22;23050;51.776;22.638;2023-03-14T12:05:43;18.00;1.00
37158;DHT22;23050;51.776;22.638;2023-03-14T12:08:29;17.60;1.00
37158;DHT22;23050;51.776;22.638;2023-03-14T12:11:02;17.10;1.00
37158;DHT22;23050;51.776;22.638;2023-03-14T12:13:32;17.00;1.00
37158;DHT22;23050;51.776;22.638;2023-03-14T12:16:00;17.30;1.00
37158;DHT22;23050;51.776;22.638;2023-03-14T12:18:36;17.00;1.00
37158;DHT22;23050;51.776;22.638;2023-03-14T12:21:10;16.90;1.00
37158;DHT22;23050;51.776;22.638;2023-03-14T12:26:18;17.00;1.00
37158;DHT22;23050;51.776;22.638;2023-03-14T12:28:52;17.30;1.00
37158;DHT22;23050;51.776;22.638;2023-03-14T12:31:48;17.70;1.00
37158;DHT22;23050;51.776;22.638;2023-03-14T12:36:56;17.80;1.00
37158;DHT22;23050;51.776;22.638;2023-03-14T12:39:39;17.80;1.00
37158;DHT22;23050;51.776;22.638;2023-03-14T12:42:43;17.80;1.00
37158;DHT22;23050;51.776;22.638;2023-03-14T12:48:20;17.20;1.00
37158;DHT22;23050;51.776;22.638;2023-03-14T12:50:54;16.70;1.00
37158;DHT22;23050;51.776;22.638;2023-03-14T12:59:16;15.80;1.00
37158;DHT22;23050;51.776;22.638;2023-03-14T13:04:33;15.50;1.00
37158;DHT22;23050;51.776;22.638;2023-03-14T13:07:00;15.50;1.00
37158;DHT22;23050;51.776;22.638;2023-03-14T13:12:14;15.50;1.00
37158;DHT22;23050;51.776;22.638;2023-03-14T13:14:44;15.40;1.00
37158;DHT22;23050;51.776;22.638;2023-03-14T13:17:14;15.40;1.00
37158;DHT22;23050;51.776;22.638;2023-03-14T13:19:41;15.40;1.00
37158;DHT22;23050;51.776;22.638;2023-03-14T13:22:21;15.30;1.00
37158;DHT22;23050;51.776;22.638;2023-03-14T13:24:47;15.20;1.00
37158;DHT22;23050;51.776;22.638;2023-03-14T13:27:20;15.00;1.00
37158;DHT22;23050;51.776;22.638;2023-03-14T13:29:48;14.90;1.00
37158;DHT22;23050;51.776;22.638;2023-03-14T13:32:22;14.80;1.00
37158;DHT22;23050;51.776;22.638;2023-03-14T13:34:51;14.70;1.00
37158;DHT22;23050;51.776;22.638;2023-03-14T13:37:21;14.60;1.00
37158;DHT22;23050;51.776;22.638;2023-03-14T13:39:56;14.50;1.00
37158;DHT22;23050;51.776;22.638;2023-03-14T13:42:25;14.60;1.00
37158;DHT22;23050;51.776;22.638;2023-03-14T13:44:53;14.70;1.00
37158;DHT22;23050;51.776;22.638;2023-03-14T13:47:21;14.80;1.00
37158;DHT22;23050;51.776;22.638;2023-03-14T13:49:49;14.90;1.00
37158;DHT22;23050;51.776;22.638;2023-03-14T13:52:41;15.00;1.00
37158;DHT22;23050;51.776;22.638;2023-03-14T13:55:15;15.10;1.00
37158;DHT22;23050;51.776;22.638;2023-03-14T13:57:50;15.20;1.00
37158;DHT22;23050;51.776;22.638;2023-03-14T14:00:25;15.30;1.00
37158;DHT22;23050;51.776;22.638;2023-03-14T14:02:56;15.40;1.00
37158;DHT22;23050;51.776;22.638;2023-03-14T14:05:30;15.30;1.00
37158;DHT22;23050;51.776;22.638;2023-03-14T14:07:57;15.30;1.00
37158;DHT22;23050;51.776;22.638;2023-03-14T14:10:23;15.20;1.00
37158;DHT22;23050;51.776;22.638;2023-03-14T14:12:57;15.20;1.00
37158;DHT22;23050;51.776;22.638;2023-03-14T14:15:29;15.20;1.00
37158;DHT22;23050;51.776;22.638;2023-03-14T14:18:01;15.10;1.00
37158;DHT22;23050;51.776;22.638;2023-03-14T14:20:35;15.10;1.00
37158;DHT22;23050;51.776;22.638;2023-03-14T14:23:06;15.10;1.00
37158;DHT22;23050;51.776;22.638;2023-03-14T14:25:34;15.00;1.00
37158;DHT22;23050;51.776;22.638;2023-03-14T14:28:15;14.90;1.00
37158;DHT22;23050;51.776;22.638;2023-03-14T14:30:42;14.80;1.00
37158;DHT22;23050;51.776;22.638;2023-03-14T14:35:42;14.70;1.00
37158;DHT22;23050;51.776;22.638;2023-03-14T14:38:17;14.60;1.00
37158;DHT22;23050;51.776;22.638;2023-03-14T14:40:50;14.60;1.00
37158;DHT22;23050;51.776;22.638;2023-03-14T14:43:23;14.50;1.00
37158;DHT22;23050;51.776;22.638;2023-03-14T14:45:53;14.50;1.00
37158;DHT22;23050;51.776;22.638;2023-03-14T14:48:20;14.40;1.00
37158;DHT22;23050;51.776;22.638;2023-03-14T14:53:34;14.40;1.00
37158;DHT22;23050;51.776;22.638;2023-03-14T14:56:07;14.30;1.00
37158;DHT22;23050;51.776;22.638;2023-03-14T14:58:35;14.30;1.00
37158;DHT22;23050;51.776;22.638;2023-03-14T15:03:44;14.20;1.00
37158;DHT22;23050;51.776;22.638;2023-03-14T15:06:11;14.10;1.00
37158;DHT22;23050;51.776;22.638;2023-03-14T15:08:38;14.00;1.00
37158;DHT22;23050;51.776;22.638;2023-03-14T15:11:03;14.00;1.00
37158;DHT22;23050;51.776;22.638;2023-03-14T15:13:29;13.90;1.00
37158;DHT22;23050;51.776;22.638;2023-03-14T15:15:54;13.80;1.00
37158;DHT22;23050;51.776;22.638;2023-03-14T15:18:24;13.80;1.00
37158;DHT22;23050;51.776;22.638;2023-03-14T15:20:51;13.80;1.00
37158;DHT22;23050;51.776;22.638;2023-03-14T15:23:18;13.90;1.00
37158;DHT22;23050;51.776;22.638;2023-03-14T15:25:45;13.80;1.00
37158;DHT22;23050;51.776;22.638;2023-03-14T15:28:22;13.90;1.00
37158;DHT22;23050;51.776;22.638;2023-03-14T15:30:50;13.90;1.00
37158;DHT22;23050;51.776;22.638;2023-03-14T15:33:16;13.80;1.00
37158;DHT22;23050;51.776;22.638;2023-03-14T15:35:42;13.80;1.00
37158;DHT22;23050;51.776;22.638;2023-03-14T15:38:13;13.80;1.00
37158;DHT22;23050;51.776;22.638;2023-03-14T15:40:39;13.80;1.00
37158;DHT22;23050;51.776;22.638;2023-03-14T15:43:05;13.70;1.00
37158;DHT22;23050;51.776;22.638;2023-03-14T15:45:31;13.70;1.00
37158;DHT22;23050;51.776;22.638;2023-03-14T15:47:57;13.60;1.00
37158;DHT22;23050;51.776;22.638;2023-03-14T15:50:23;13.60;1.00
37158;DHT22;23050;51.776;22.638;2023-03-14T15:52:51;13.50;1.00
37158;DHT22;23050;51.776;22.638;2023-03-14T15:55:17;13.40;12.10
37158;DHT22;23050;51.776;22.638;2023-03-14T15:57:45;13.40;18.20
37158;DHT22;23050;51.776;22.638;2023-03-14T16:00:18;13.20;24.70
37158;DHT22;23050;51.776;22.638;2023-03-14T16:02:44;13.20;28.50
37158;DHT22;23050;51.776;22.638;2023-03-14T16:05:11;13.10;31.90
37158;DHT22;23050;51.776;22.638;2023-03-14T16:07:37;13.10;35.90
37158;DHT22;23050;51.776;22.638;2023-03-14T16:10:03;13.00;58.10
37158;DHT22;23050;51.776;22.638;2023-03-14T16:12:30;12.90;60.50
37158;DHT22;23050;51.776;22.638;2023-03-14T16:14:56;12.80;67.10
37158;DHT22;23050;51.776;22.638;2023-03-14T16:17:21;12.70;74.70
37158;DHT22;23050;51.776;22.638;2023-03-14T16:19:47;12.60;82.40
37158;DHT22;23050;51.776;22.638;2023-03-14T16:22:13;12.50;91.20
37158;DHT22;23050;51.776;22.638;2023-03-14T16:24:38;12.40;93.50
37158;DHT22;23050;51.776;22.638;2023-03-14T16:27:04;12.30;95.70
37158;DHT22;23050;51.776;22.638;2023-03-14T16:29:30;12.20;97.50
37158;DHT22;23050;51.776;22.638;2023-03-14T16:31:56;12.20;96.80
37158;DHT22;23050;51.776;22.638;2023-03-14T16:34:21;12.10;98.50
37158;DHT22;23050;51.776;22.638;2023-03-14T16:36:47;12.10;99.40
37158;DHT22;23050;51.776;22.638;2023-03-14T16:39:16;12.00;98.40
37158;DHT22;23050;51.776;22.638;2023-03-14T16:41:42;12.00;98.30
37158;DHT22;23050;51.776;22.638;2023-03-14T16:44:08;12.10;97.50
37158;DHT22;23050;51.776;22.638;2023-03-14T16:46:33;12.10;97.70